createdAt,value
2022-10-12T00:01:42.373Z,5.23
2022-10-12T00:04:09.534Z,5.10
2022-10-12T00:06:36.735Z,4.87
2022-10-12T00:09:03.711Z,4.87
2022-10-12T00:11:31.366Z,5.10
2022-10-12T00:13:58.479Z,4.67
2022-10-12T00:16:26.275Z,5.20
2022-10-12T00:18:56.195Z,5.27
2022-10-12T00:21:25.085Z,5.17
2022-10-12T00:23:52.274Z,5.10
2022-10-12T00:26:21.360Z,4.93
2022-10-12T00:28:48.955Z,5.33
2022-10-12T00:31:17.815Z,4.70
2022-10-12T00:33:45.286Z,5.10
2022-10-12T00:36:19.118Z,5.47
2022-10-12T00:38:46.568Z,5.10
2022-10-12T00:41:15.138Z,5.20
2022-10-12T00:43:44.278Z,5.10
2022-10-12T00:46:17.888Z,5.83
2022-10-12T00:48:47.200Z,5.07
2022-10-12T00:51:18.905Z,5.07
2022-10-12T00:53:50.317Z,4.83
2022-10-12T00:56:21.669Z,4.63
2022-10-12T00:58:50.080Z,5.07
2022-10-12T01:01:18.100Z,5.00
2022-10-12T01:03:45.570Z,4.23
2022-10-12T01:06:13.041Z,4.70
2022-10-12T01:08:42.347Z,4.33
2022-10-12T01:11:09.585Z,4.40
2022-10-12T01:13:36.627Z,4.30
2022-10-12T01:16:11.478Z,4.53
2022-10-12T01:18:45.059Z,4.70
2022-10-12T01:21:18.486Z,4.17
2022-10-12T01:24:15.121Z,4.23
2022-10-12T01:27:16.740Z,4.60
2022-10-12T01:30:07.949Z,5.03
2022-10-12T01:32:42.668Z,5.07
2022-10-12T01:35:16.773Z,4.17
2022-10-12T01:37:52.913Z,4.13
2022-10-12T01:40:27.299Z,4.80
2022-10-12T01:42:55.415Z,4.43
2022-10-12T01:45:24.057Z,4.13
2022-10-12T01:47:53.643Z,4.33
2022-10-12T01:50:22.849Z,4.37
2022-10-12T01:52:58.267Z,4.80
2022-10-12T01:55:37.307Z,4.20
2022-10-12T01:58:18.007Z,4.00
2022-10-12T02:00:55.722Z,4.27
2022-10-12T02:03:31.440Z,3.70
2022-10-12T02:06:03.060Z,3.67
2022-10-12T02:08:34.426Z,3.40
2022-10-12T02:11:06.844Z,4.20
2022-10-12T02:13:37.339Z,3.63
2022-10-12T02:16:11.403Z,3.97
2022-10-12T02:18:42.792Z,4.00
2022-10-12T02:21:11.955Z,4.17
2022-10-12T02:23:39.366Z,3.13
2022-10-12T02:26:08.320Z,3.60
2022-10-12T02:28:37.243Z,4.27
2022-10-12T02:31:15.319Z,4.00
2022-10-12T02:33:46.777Z,3.40
2022-10-12T02:36:20.856Z,3.93
2022-10-12T02:38:53.225Z,3.70
2022-10-12T02:41:25.948Z,3.60
2022-10-12T02:43:56.776Z,3.90
2022-10-12T02:46:27.301Z,3.37
2022-10-12T02:48:55.745Z,3.60
2022-10-12T02:51:25.152Z,3.83
2022-10-12T02:53:52.332Z,3.90
2022-10-12T02:56:19.495Z,3.77
2022-10-12T02:58:47.343Z,3.80
2022-10-12T03:01:17.268Z,3.63
2022-10-12T03:03:45.976Z,3.10
2022-10-12T03:06:13.600Z,4.07
2022-10-12T03:08:40.493Z,3.40
2022-10-12T03:11:12.072Z,3.17
2022-10-12T03:13:39.007Z,3.87
2022-10-12T03:16:08.674Z,3.67
2022-10-12T03:18:35.614Z,3.90
2022-10-12T03:21:04.376Z,3.87
2022-10-12T03:23:31.661Z,4.00
2022-10-12T03:25:58.879Z,4.00
2022-10-12T03:28:26.092Z,3.57
2022-10-12T03:30:53.448Z,3.43
2022-10-12T03:33:20.411Z,3.50
2022-10-12T03:35:48.103Z,3.20
2022-10-12T03:38:17.355Z,3.90
2022-10-12T03:40:45.384Z,4.10
2022-10-12T03:43:12.602Z,4.00
2022-10-12T03:45:40.087Z,4.27
2022-10-12T03:48:07.352Z,3.80
2022-10-12T03:50:35.664Z,4.33
2022-10-12T03:53:03.814Z,3.40
2022-10-12T03:55:32.547Z,3.23
2022-10-12T03:57:59.361Z,3.70
2022-10-12T04:00:28.484Z,3.77
2022-10-12T04:02:55.755Z,3.50
2022-10-12T04:05:23.063Z,3.87
2022-10-12T04:07:50.182Z,3.53
2022-10-12T04:10:17.668Z,3.30
2022-10-12T04:12:46.176Z,4.00
2022-10-12T04:15:14.756Z,3.63
2022-10-12T04:17:41.969Z,3.77
2022-10-12T04:20:11.597Z,4.03
2022-10-12T04:22:38.442Z,4.10
2022-10-12T04:25:06.674Z,3.87
2022-10-12T04:27:33.562Z,3.60
2022-10-12T04:30:02.037Z,4.07
2022-10-12T04:32:28.887Z,4.17
2022-10-12T04:34:56.036Z,3.67
2022-10-12T04:37:22.873Z,3.83
2022-10-12T04:39:50.245Z,4.30
2022-10-12T04:42:17.107Z,4.00
2022-10-12T04:44:44.227Z,4.27
2022-10-12T04:47:12.379Z,4.73
2022-10-12T04:49:39.196Z,4.13
2022-10-12T04:52:06.427Z,3.90
2022-10-12T04:54:33.753Z,4.30
2022-10-12T04:57:00.610Z,5.80
2022-10-12T04:59:28.246Z,6.73
2022-10-12T05:01:55.371Z,6.30
2022-10-12T05:04:24.055Z,5.53
2022-10-12T05:06:50.957Z,5.97
2022-10-12T05:09:18.328Z,5.23
2022-10-12T05:11:45.237Z,6.10
2022-10-12T05:14:12.768Z,4.67
2022-10-12T05:16:39.722Z,4.27
2022-10-12T05:19:06.994Z,4.40
2022-10-12T05:21:35.295Z,4.60
2022-10-12T05:24:02.526Z,4.37
2022-10-12T05:26:29.353Z,4.67
2022-10-12T05:28:56.529Z,4.77
2022-10-12T05:31:23.522Z,4.07
2022-10-12T05:33:50.864Z,4.43
2022-10-12T05:36:17.710Z,4.20
2022-10-12T05:38:46.172Z,4.57
2022-10-12T05:41:13.067Z,5.10
2022-10-12T05:43:40.392Z,4.90
2022-10-12T05:46:09.107Z,5.10
2022-10-12T05:48:39.403Z,5.27
2022-10-12T05:51:06.594Z,4.40
2022-10-12T05:53:33.868Z,6.07
2022-10-12T05:56:02.487Z,4.33
2022-10-12T05:58:30.975Z,5.60
2022-10-12T06:01:05.300Z,5.33
2022-10-12T06:03:35.003Z,5.00
2022-10-12T06:06:03.043Z,4.30
2022-10-12T06:08:31.052Z,5.00
2022-10-12T06:10:57.886Z,4.90
2022-10-12T06:13:26.763Z,4.67
2022-10-12T06:15:53.673Z,5.03
2022-10-12T06:18:21.578Z,4.77
2022-10-12T06:20:49.806Z,5.00
2022-10-12T06:23:17.414Z,4.63
2022-10-12T06:25:45.903Z,5.20
2022-10-12T06:28:13.236Z,5.00
2022-10-12T06:30:41.757Z,5.10
2022-10-12T06:33:09.431Z,5.07
2022-10-12T06:35:36.303Z,4.93
2022-10-12T06:38:03.592Z,5.50
2022-10-12T06:40:30.620Z,5.43
2022-10-12T06:43:02.487Z,5.33
2022-10-12T06:45:29.958Z,5.40
2022-10-12T06:47:58.710Z,7.43
2022-10-12T06:50:26.864Z,7.60
2022-10-12T06:52:53.860Z,8.03
2022-10-12T06:55:21.062Z,5.17
2022-10-12T06:57:47.903Z,5.50
2022-10-12T07:00:16.033Z,5.90
2022-10-12T07:02:42.916Z,5.50
2022-10-12T07:05:11.580Z,5.70
2022-10-12T07:07:38.625Z,6.33
2022-10-12T07:10:07.275Z,5.63
2022-10-12T07:12:36.025Z,5.90
2022-10-12T07:15:04.186Z,6.03
2022-10-12T07:17:31.111Z,5.33
2022-10-12T07:19:58.247Z,5.97
2022-10-12T07:22:26.547Z,5.40
2022-10-12T07:24:53.759Z,5.40
2022-10-12T07:27:20.715Z,5.57
2022-10-12T07:29:47.934Z,5.67
2022-10-12T07:32:14.846Z,6.07
2022-10-12T07:34:44.981Z,6.33
2022-10-12T07:37:11.997Z,7.97
2022-10-12T07:39:41.906Z,7.73
2022-10-12T07:42:08.958Z,6.77
2022-10-12T07:44:36.189Z,6.83
2022-10-12T07:47:03.162Z,5.50
2022-10-12T07:49:30.444Z,4.93
2022-10-12T07:51:57.347Z,5.00
2022-10-12T07:54:29.198Z,4.80
2022-10-12T07:56:57.792Z,5.27
2022-10-12T07:59:25.483Z,4.80
2022-10-12T08:01:53.442Z,4.60
2022-10-12T08:04:20.706Z,5.57
2022-10-12T08:06:47.574Z,4.43
2022-10-12T08:09:14.784Z,4.60
2022-10-12T08:11:42.184Z,4.27
2022-10-12T08:14:15.008Z,4.60
2022-10-12T08:16:42.798Z,4.63
2022-10-12T08:19:10.420Z,4.37
2022-10-12T08:21:37.372Z,4.03
2022-10-12T08:24:04.975Z,4.00
2022-10-12T08:26:33.134Z,4.40
2022-10-12T08:29:01.718Z,3.90
2022-10-12T08:31:30.181Z,4.10
2022-10-12T08:33:57.718Z,3.90
2022-10-12T08:36:25.342Z,4.67
2022-10-12T08:38:55.328Z,4.37
2022-10-12T08:41:40.994Z,4.07
2022-10-12T08:44:27.512Z,4.17
2022-10-12T08:47:00.147Z,3.90
2022-10-12T08:49:31.624Z,4.20
2022-10-12T08:52:00.939Z,4.40
2022-10-12T08:54:33.014Z,3.93
2022-10-12T08:56:59.846Z,5.33
2022-10-12T08:59:30.473Z,4.27
2022-10-12T09:02:06.554Z,6.43
2022-10-12T09:04:44.747Z,3.90
2022-10-12T09:07:15.357Z,3.03
2022-10-12T09:09:54.791Z,2.53
2022-10-12T09:12:38.366Z,3.07
2022-10-12T09:15:11.968Z,3.00
2022-10-12T09:17:45.049Z,2.80
2022-10-12T09:20:18.719Z,3.17
2022-10-12T09:22:49.729Z,2.90
2022-10-12T09:25:17.879Z,3.40
2022-10-12T09:27:46.929Z,2.70
2022-10-12T09:30:16.224Z,3.10
2022-10-12T09:33:10.070Z,2.67
2022-10-12T09:35:37.505Z,2.97
2022-10-12T09:38:06.456Z,2.40
2022-10-12T09:40:33.403Z,2.47
2022-10-12T09:43:02.303Z,2.17
2022-10-12T09:45:32.345Z,2.80
2022-10-12T09:48:19.001Z,2.40
2022-10-12T09:50:51.985Z,2.87
2022-10-12T09:53:27.938Z,2.30
2022-10-12T09:56:02.198Z,2.20
2022-10-12T09:58:30.568Z,2.53
2022-10-12T10:01:21.230Z,2.67
2022-10-12T10:04:06.303Z,1.97
2022-10-12T10:06:33.342Z,2.30
2022-10-12T10:09:00.573Z,2.70
2022-10-12T10:11:31.432Z,2.27
2022-10-12T10:14:00.888Z,2.53
2022-10-12T10:16:30.272Z,2.00
2022-10-12T10:19:01.826Z,3.07
2022-10-12T10:21:32.457Z,2.90
2022-10-12T10:24:01.320Z,2.37
2022-10-12T10:26:31.507Z,2.00
2022-10-12T10:29:17.063Z,2.00
2022-10-12T10:31:47.904Z,2.37
2022-10-12T10:34:24.141Z,4.30
2022-10-12T10:36:52.915Z,4.57
2022-10-12T10:39:24.273Z,3.73
2022-10-12T10:41:53.241Z,2.33
2022-10-12T10:44:32.174Z,2.43
2022-10-12T10:47:03.046Z,2.60
2022-10-12T10:49:39.083Z,2.93
2022-10-12T10:52:07.758Z,1.80
2022-10-12T10:54:38.937Z,2.10
2022-10-12T10:57:12.493Z,2.23
2022-10-12T10:59:45.157Z,2.13
2022-10-12T11:02:23.484Z,2.70
2022-10-12T11:04:57.548Z,2.40
2022-10-12T11:07:30.033Z,2.07
2022-10-12T11:10:00.393Z,2.33
2022-10-12T11:12:31.462Z,2.30
2022-10-12T11:15:05.977Z,1.90
2022-10-12T11:17:35.444Z,2.33
2022-10-12T11:20:19.503Z,2.27
2022-10-12T11:22:49.938Z,3.50
2022-10-12T11:25:22.166Z,2.10
2022-10-12T11:27:53.733Z,2.23
2022-10-12T11:30:23.042Z,2.00
2022-10-12T11:32:54.599Z,2.47
2022-10-12T11:35:28.302Z,2.60
2022-10-12T11:38:00.651Z,3.57
2022-10-12T11:41:05.714Z,2.43
2022-10-12T11:43:23.297Z,1.93
2022-10-12T11:45:54.417Z,4.23
2022-10-12T11:48:27.415Z,2.60
2022-10-12T11:51:01.427Z,5.00
2022-10-12T11:53:40.334Z,2.42
2022-10-12T11:56:13.757Z,2.33
2022-10-12T11:59:01.431Z,2.50
2022-10-12T12:01:54.441Z,2.00
2022-10-12T12:04:46.367Z,2.63
2022-10-12T12:07:42.040Z,2.50
2022-10-12T12:10:44.470Z,2.40
2022-10-12T12:13:23.136Z,2.50
2022-10-12T12:16:28.661Z,3.78
2022-10-12T12:19:36.475Z,3.08
2022-10-12T12:22:28.812Z,3.63
2022-10-12T12:25:04.476Z,3.63
2022-10-12T12:27:37.884Z,2.50
2022-10-12T12:30:22.163Z,2.30
2022-10-12T12:32:51.688Z,2.58
2022-10-12T12:35:23.202Z,2.40
2022-10-12T12:38:00.794Z,2.55
2022-10-12T12:40:29.183Z,2.70
2022-10-12T12:43:36.628Z,3.13
2022-10-12T12:46:06.331Z,2.53
2022-10-12T12:49:04.305Z,2.40
2022-10-12T12:51:43.298Z,2.28
2022-10-12T12:54:21.266Z,2.30
2022-10-12T12:57:05.756Z,2.78
2022-10-12T13:00:06.943Z,2.65
2022-10-12T13:03:14.983Z,2.05
2022-10-12T13:06:19.226Z,2.25
2022-10-12T13:09:14.857Z,2.25
2022-10-12T13:11:57.789Z,2.15
2022-10-12T13:14:36.941Z,2.38
2022-10-12T13:17:34.441Z,2.72
2022-10-12T13:20:07.610Z,2.65
2022-10-12T13:22:35.466Z,2.50
2022-10-12T13:25:07.384Z,2.45
2022-10-12T13:27:40.972Z,2.22
2022-10-12T13:30:19.709Z,1.98
2022-10-12T13:32:53.334Z,2.20
2022-10-12T13:35:31.026Z,2.45
2022-10-12T13:38:03.781Z,2.33
2022-10-12T13:40:36.516Z,2.67
2022-10-12T13:43:33.831Z,2.00
2022-10-12T13:46:01.339Z,2.45
2022-10-12T13:48:57.715Z,2.40
2022-10-12T13:51:23.580Z,2.20
2022-10-12T13:53:51.089Z,2.47
2022-10-12T13:56:21.059Z,2.10
2022-10-12T13:58:52.012Z,5.07
2022-10-12T14:01:18.976Z,7.15
2022-10-12T14:03:46.502Z,3.47
2022-10-12T14:06:28.116Z,2.35
2022-10-12T14:08:57.387Z,2.47
2022-10-12T14:11:25.372Z,2.15
2022-10-12T14:13:55.334Z,2.42
2022-10-12T14:16:22.260Z,2.35
2022-10-12T14:18:51.074Z,2.70
2022-10-12T14:21:25.416Z,2.25
2022-10-12T14:23:54.879Z,2.17
2022-10-12T14:26:31.460Z,2.58
2022-10-12T14:29:00.992Z,2.35
2022-10-12T14:31:47.646Z,2.30
2022-10-12T14:34:32.279Z,2.45
2022-10-12T14:37:00.877Z,2.10
2022-10-12T14:39:28.767Z,2.40
2022-10-12T14:41:57.571Z,2.78
2022-10-12T14:44:27.340Z,2.50
2022-10-12T14:46:55.915Z,2.40
2022-10-12T14:49:25.425Z,2.85
2022-10-12T14:51:54.731Z,2.45
2022-10-12T14:54:22.512Z,2.22
2022-10-12T14:56:49.362Z,2.65
2022-10-12T14:59:16.801Z,3.45
2022-10-12T15:01:51.022Z,5.97
2022-10-12T15:04:18.981Z,5.55
2022-10-12T15:06:50.522Z,9.95
2022-10-12T15:09:18.348Z,8.90
2022-10-12T15:11:45.214Z,10.90
2022-10-12T15:14:12.883Z,7.53
2022-10-12T15:16:39.833Z,5.72
2022-10-12T15:19:08.421Z,12.23
2022-10-12T15:21:35.264Z,6.85
2022-10-12T15:24:02.423Z,6.30
2022-10-12T15:26:29.388Z,7.07
2022-10-12T15:28:56.728Z,5.82
2022-10-12T15:31:23.644Z,4.32
2022-10-12T15:33:50.829Z,4.28
2022-10-12T15:36:19.066Z,3.60
2022-10-12T15:38:46.539Z,3.95
2022-10-12T15:41:17.286Z,3.53
2022-10-12T15:43:44.718Z,4.18
2022-10-12T15:46:12.194Z,3.38
2022-10-12T15:48:40.564Z,3.53
2022-10-12T15:51:13.627Z,2.72
2022-10-12T15:53:42.208Z,3.77
2022-10-12T15:56:13.238Z,3.10
2022-10-12T15:58:40.566Z,2.90
2022-10-12T16:01:11.030Z,3.07
2022-10-12T16:03:38.863Z,6.00
2022-10-12T16:06:06.431Z,11.03
2022-10-12T16:08:33.786Z,17.03
2022-10-12T16:11:05.286Z,26.60
2022-10-12T16:13:33.354Z,47.37
2022-10-12T16:16:00.326Z,44.23
2022-10-12T16:18:27.603Z,71.67
2022-10-12T16:20:54.589Z,94.13
2022-10-12T16:23:24.771Z,75.97
2022-10-12T16:25:51.736Z,203.23
2022-10-12T16:28:21.248Z,107.60
2022-10-12T16:30:49.617Z,24.53
2022-10-12T16:33:17.022Z,9.43
2022-10-12T16:35:44.024Z,5.70
2022-10-12T16:38:11.832Z,11.30
2022-10-12T16:40:39.241Z,18.93
2022-10-12T16:43:06.448Z,8.33
2022-10-12T16:45:34.968Z,4.47
2022-10-12T16:48:02.835Z,4.33
2022-10-12T16:50:30.108Z,4.77
2022-10-12T16:52:57.414Z,4.57
2022-10-12T16:55:24.364Z,4.07
2022-10-12T16:57:51.685Z,4.27
2022-10-12T17:00:19.569Z,4.10
2022-10-12T17:02:48.346Z,11.47
2022-10-12T17:05:15.652Z,8.67
2022-10-12T17:07:44.239Z,7.60
2022-10-12T17:10:11.175Z,7.00
2022-10-12T17:12:38.409Z,5.77
2022-10-12T17:15:06.151Z,5.30
2022-10-12T17:17:33.535Z,5.70
2022-10-12T17:22:35.160Z,4.97
2022-10-12T17:25:02.007Z,5.23
2022-10-12T17:27:32.088Z,4.70
2022-10-12T17:29:59.527Z,6.27
2022-10-12T17:32:27.184Z,5.60
2022-10-12T17:34:54.121Z,6.47
2022-10-12T17:37:22.697Z,6.97
2022-10-12T17:39:50.305Z,5.30
2022-10-12T17:42:18.278Z,5.17
2022-10-12T17:44:45.576Z,6.00
2022-10-12T17:47:12.929Z,5.70
2022-10-12T17:49:39.807Z,5.60
2022-10-12T17:52:07.232Z,28.83
2022-10-12T17:54:35.543Z,29.70
2022-10-12T17:57:02.950Z,19.87
2022-10-12T17:59:30.012Z,9.17
2022-10-12T18:01:57.252Z,7.47
2022-10-12T18:04:24.127Z,6.63
2022-10-12T18:06:51.094Z,6.13
2022-10-12T18:09:18.311Z,6.27
2022-10-12T18:11:46.975Z,6.17
2022-10-12T18:14:14.307Z,6.50
2022-10-12T18:16:41.667Z,6.43
2022-10-12T18:19:11.687Z,6.47
2022-10-12T18:21:38.988Z,6.40
2022-10-12T18:24:16.808Z,6.27
2022-10-12T18:26:47.165Z,6.67
2022-10-12T18:29:14.376Z,6.03
2022-10-12T18:31:41.789Z,5.70
2022-10-12T18:34:09.016Z,5.70
2022-10-12T18:36:36.368Z,5.87
2022-10-12T18:39:04.702Z,5.80
2022-10-12T18:41:31.937Z,5.80
2022-10-12T18:44:02.655Z,5.47
2022-10-12T18:46:31.834Z,4.77
2022-10-12T18:48:59.568Z,5.50
2022-10-12T18:51:28.497Z,5.10
2022-10-12T18:53:56.942Z,7.87
2022-10-12T18:56:24.160Z,7.03
2022-10-12T18:58:51.370Z,5.90
2022-10-12T19:01:21.943Z,5.40
2022-10-12T19:03:49.540Z,5.30
2022-10-12T19:06:21.569Z,5.23
2022-10-12T19:08:49.395Z,5.50
2022-10-12T19:11:18.691Z,5.63
2022-10-12T19:13:52.434Z,5.97
2022-10-12T19:16:21.136Z,6.10
2022-10-12T19:18:48.534Z,5.87
2022-10-12T19:21:18.529Z,5.80
2022-10-12T19:23:46.370Z,5.77
2022-10-12T19:26:16.134Z,5.47
2022-10-12T19:28:43.953Z,5.70
2022-10-12T19:31:13.510Z,5.50
2022-10-12T19:33:42.959Z,5.83
2022-10-12T19:36:11.945Z,5.30
2022-10-12T19:38:39.403Z,5.57
2022-10-12T19:41:07.324Z,5.23
2022-10-12T19:43:34.823Z,5.20
2022-10-12T19:46:02.539Z,5.33
2022-10-12T19:48:29.928Z,6.07
2022-10-12T19:51:03.027Z,5.60
2022-10-12T19:53:30.595Z,5.93
2022-10-12T19:56:00.978Z,5.67
2022-10-12T19:58:28.851Z,5.47
2022-10-12T20:01:01.113Z,5.70
2022-10-12T20:03:28.775Z,5.43
2022-10-12T20:05:55.861Z,5.70
2022-10-12T20:08:25.178Z,5.47
2022-10-12T20:10:52.881Z,5.33
2022-10-12T20:13:20.579Z,6.00
2022-10-12T20:15:51.070Z,5.87
2022-10-12T20:18:18.279Z,6.17
2022-10-12T20:20:45.222Z,6.00
2022-10-12T20:23:12.930Z,6.43
2022-10-12T20:25:42.325Z,6.10
2022-10-12T20:28:09.744Z,5.87
2022-10-12T20:30:37.084Z,5.47
2022-10-12T20:33:05.004Z,5.90
2022-10-12T20:35:32.032Z,6.67
2022-10-12T20:37:59.861Z,6.97
2022-10-12T20:40:27.525Z,7.00
2022-10-12T20:42:56.747Z,7.40
2022-10-12T20:45:23.897Z,7.00
2022-10-12T20:47:51.411Z,6.77
2022-10-12T20:50:19.224Z,6.47
2022-10-12T20:52:47.574Z,5.63
2022-10-12T20:55:14.550Z,6.13
2022-10-12T20:57:41.768Z,6.10
2022-10-12T21:00:10.900Z,5.80
2022-10-12T21:02:38.566Z,6.00
2022-10-12T21:05:06.843Z,6.20
2022-10-12T21:07:34.601Z,6.07
2022-10-12T21:10:01.729Z,5.60
2022-10-12T21:12:28.971Z,6.40
2022-10-12T21:14:55.892Z,6.70
2022-10-12T21:17:24.522Z,10.37
2022-10-12T21:19:53.577Z,7.83
2022-10-12T21:22:21.172Z,7.87
2022-10-12T21:24:48.380Z,7.67
2022-10-12T21:27:15.747Z,7.47
2022-10-12T21:29:42.621Z,6.63
2022-10-12T21:32:09.900Z,6.67
2022-10-12T21:34:38.167Z,6.20
2022-10-12T21:37:05.508Z,6.47
2022-10-12T21:39:32.401Z,6.10
2022-10-12T21:41:59.278Z,6.17
2022-10-12T21:44:26.121Z,6.27
2022-10-12T21:46:53.857Z,5.90
2022-10-12T21:49:20.754Z,5.83
2022-10-12T21:51:49.308Z,6.53
2022-10-12T21:54:16.932Z,6.77
2022-10-12T21:56:44.036Z,6.53
2022-10-12T21:59:10.982Z,6.23
2022-10-12T22:01:40.613Z,6.50
2022-10-12T22:04:11.308Z,6.83
2022-10-12T22:06:38.561Z,6.53
2022-10-12T22:09:09.157Z,6.50
2022-10-12T22:11:37.576Z,6.80
2022-10-12T22:14:06.738Z,6.53
2022-10-12T22:16:34.744Z,7.33
2022-10-12T22:19:03.734Z,6.90
2022-10-12T22:21:31.880Z,6.23
2022-10-12T22:24:00.387Z,6.93
2022-10-12T22:26:29.646Z,6.90
2022-10-12T22:28:56.600Z,7.23
2022-10-12T22:31:25.145Z,7.57
2022-10-12T22:33:52.496Z,6.53
2022-10-12T22:36:20.057Z,7.20
2022-10-12T22:38:47.008Z,7.17
2022-10-12T22:41:16.383Z,5.93
2022-10-12T22:43:44.650Z,6.83
2022-10-12T22:46:12.030Z,6.47
2022-10-12T22:48:39.284Z,7.23
2022-10-12T22:51:07.437Z,7.10
2022-10-12T22:53:35.310Z,6.90
2022-10-12T22:56:05.627Z,6.40
2022-10-12T22:58:33.696Z,7.33
2022-10-12T23:01:04.144Z,6.43
2022-10-12T23:03:31.742Z,6.73
2022-10-12T23:05:59.347Z,6.60
2022-10-12T23:08:26.326Z,6.33
2022-10-12T23:10:54.106Z,7.37
2022-10-12T23:13:21.200Z,6.57
2022-10-12T23:15:48.382Z,6.87
2022-10-12T23:18:16.611Z,7.27
2022-10-12T23:20:43.752Z,6.70
2022-10-12T23:23:10.594Z,6.90
2022-10-12T23:25:37.821Z,6.70
2022-10-12T23:28:04.765Z,6.40
2022-10-12T23:30:32.079Z,7.20
2022-10-12T23:32:58.923Z,7.33
2022-10-12T23:35:27.501Z,6.73
2022-10-12T23:37:54.455Z,7.20
2022-10-12T23:40:21.727Z,6.93
2022-10-12T23:42:48.591Z,7.30
2022-10-12T23:45:15.871Z,6.70
2022-10-12T23:47:42.785Z,7.00
2022-10-12T23:50:10.337Z,8.07
2022-10-12T23:52:38.907Z,7.30
2022-10-12T23:55:07.202Z,7.80
2022-10-12T23:57:46.819Z,7.63
